createdAt,value
2019-05-09T00:00:38.929Z,25.50
2019-05-09T00:03:10.491Z,25.60
2019-05-09T00:05:43.943Z,25.60
2019-05-09T00:08:14.937Z,25.70
2019-05-09T00:10:46.504Z,25.80
2019-05-09T00:13:18.224Z,25.80
2019-05-09T00:15:49.784Z,25.80
2019-05-09T00:18:20.640Z,26.00
2019-05-09T00:20:53.978Z,26.00
2019-05-09T00:23:25.158Z,26.10
2019-05-09T00:25:56.467Z,26.20
2019-05-09T00:28:28.558Z,26.30
2019-05-09T00:31:03.256Z,26.40
2019-05-09T00:33:34.813Z,26.40
2019-05-09T00:36:06.684Z,26.60
2019-05-09T00:38:39.364Z,26.80
2019-05-09T00:41:10.971Z,27.00
2019-05-09T00:43:43.645Z,27.10
2019-05-09T00:46:16.482Z,27.40
2019-05-09T00:48:50.043Z,27.60
2019-05-09T00:51:23.335Z,27.90
2019-05-09T00:53:54.861Z,28.10
2019-05-09T00:56:26.480Z,28.20
2019-05-09T00:58:58.047Z,28.20
2019-05-09T01:01:29.655Z,28.40
2019-05-09T01:04:04.098Z,28.40
2019-05-09T01:06:34.411Z,28.50
2019-05-09T01:09:07.499Z,28.60
2019-05-09T01:11:39.056Z,28.70
2019-05-09T01:14:10.534Z,28.80
2019-05-09T01:16:44.017Z,28.80
2019-05-09T01:19:15.651Z,28.90
2019-05-09T01:21:47.473Z,28.90
2019-05-09T01:24:19.207Z,28.80
2019-05-09T01:26:50.504Z,28.90
2019-05-09T01:29:23.101Z,29.00
2019-05-09T01:31:56.159Z,29.40
2019-05-09T01:34:29.042Z,29.70
2019-05-09T01:37:03.343Z,29.90
2019-05-09T01:39:35.789Z,29.90
2019-05-09T01:42:08.322Z,29.90
2019-05-09T01:44:40.266Z,29.90
2019-05-09T01:47:14.014Z,29.80
2019-05-09T01:49:45.423Z,29.70
2019-05-09T01:52:18.026Z,29.60
2019-05-09T01:54:54.069Z,29.70
2019-05-09T01:57:24.940Z,29.80
2019-05-09T01:59:57.234Z,29.80
2019-05-09T02:02:28.311Z,29.70
2019-05-09T02:04:59.461Z,29.70
2019-05-09T02:07:30.690Z,29.60
2019-05-09T02:10:03.440Z,29.50
2019-05-09T02:12:35.327Z,29.40
2019-05-09T02:15:10.511Z,29.40
2019-05-09T02:17:57.352Z,29.40
2019-05-09T02:20:16.492Z,29.60
2019-05-09T02:23:06.746Z,29.70
2019-05-09T02:25:38.191Z,29.70
2019-05-09T02:28:10.049Z,29.70
2019-05-09T02:30:44.788Z,29.80
2019-05-09T02:33:14.923Z,29.80
2019-05-09T02:35:56.359Z,29.80
2019-05-09T02:38:20.078Z,29.90
2019-05-09T02:40:52.511Z,29.90
2019-05-09T02:43:25.403Z,29.80
2019-05-09T02:45:59.419Z,29.80
2019-05-09T02:48:31.539Z,29.70
2019-05-09T02:51:02.842Z,29.70
2019-05-09T02:53:34.118Z,29.70
2019-05-09T02:56:08.927Z,29.70
2019-05-09T02:58:40.219Z,29.70
2019-05-09T03:01:12.853Z,29.70
2019-05-09T03:03:54.169Z,29.70
2019-05-09T03:06:28.424Z,29.80
2019-05-09T03:08:59.577Z,29.70
2019-05-09T03:11:30.965Z,29.80
2019-05-09T03:14:03.028Z,29.80
2019-05-09T03:16:34.771Z,29.90
2019-05-09T03:19:08.773Z,29.90
2019-05-09T03:21:40.183Z,29.90
2019-05-09T03:24:11.817Z,29.80
2019-05-09T03:26:44.883Z,29.80
2019-05-09T03:29:19.083Z,29.70
2019-05-09T03:31:51.474Z,29.80
2019-05-09T03:34:22.741Z,29.80
2019-05-09T03:36:54.268Z,29.90
2019-05-09T03:39:27.633Z,29.90
2019-05-09T03:41:58.929Z,29.90
2019-05-09T03:44:30.570Z,30.00
2019-05-09T03:47:03.617Z,30.00
2019-05-09T03:49:37.374Z,30.00
2019-05-09T03:52:08.302Z,30.00
2019-05-09T03:54:39.983Z,30.10
2019-05-09T03:57:12.907Z,30.30
2019-05-09T03:59:45.056Z,30.30
2019-05-09T04:02:17.806Z,30.30
2019-05-09T04:04:49.814Z,30.30
2019-05-09T04:07:21.159Z,30.40
2019-05-09T04:09:52.527Z,30.80
2019-05-09T04:12:23.710Z,31.20
2019-05-09T04:14:55.358Z,31.70
2019-05-09T04:17:28.136Z,32.10
2019-05-09T04:19:59.747Z,32.20
2019-05-09T04:22:31.497Z,32.50
2019-05-09T04:25:02.890Z,32.80
2019-05-09T04:27:37.429Z,32.80
2019-05-09T04:30:09.827Z,32.50
2019-05-09T04:32:41.573Z,32.20
2019-05-09T04:35:13.224Z,31.90
2019-05-09T04:37:44.804Z,31.80
2019-05-09T04:40:17.804Z,31.70
2019-05-09T04:42:49.377Z,31.70
2019-05-09T04:45:22.079Z,31.90
2019-05-09T04:47:53.703Z,32.00
2019-05-09T04:50:25.092Z,32.10
2019-05-09T04:52:58.029Z,32.10
2019-05-09T04:55:31.219Z,32.20
2019-05-09T04:58:02.656Z,32.20
2019-05-09T05:00:37.639Z,32.40
2019-05-09T05:03:08.984Z,32.60
2019-05-09T05:05:40.905Z,32.90
2019-05-09T05:08:11.126Z,33.20
2019-05-09T05:10:42.352Z,33.40
2019-05-09T05:13:26.752Z,33.50
2019-05-09T05:15:57.833Z,33.50
2019-05-09T05:18:30.077Z,33.50
2019-05-09T05:21:01.569Z,33.40
2019-05-09T05:23:38.068Z,33.40
2019-05-09T05:26:09.349Z,33.30
2019-05-09T05:28:40.295Z,33.40
2019-05-09T05:31:12.056Z,33.50
2019-05-09T05:33:43.508Z,33.60
2019-05-09T05:36:18.084Z,33.60
2019-05-09T05:38:49.466Z,33.60
2019-05-09T05:41:20.030Z,33.70
2019-05-09T05:43:51.348Z,33.50
2019-05-09T05:46:24.276Z,33.40
2019-05-09T05:48:57.798Z,33.30
2019-05-09T05:51:29.958Z,33.10
2019-05-09T05:54:01.635Z,32.80
2019-05-09T05:56:33.374Z,32.70
2019-05-09T05:59:03.816Z,32.60
2019-05-09T06:01:38.070Z,32.40
2019-05-09T06:04:08.770Z,32.40
2019-05-09T06:06:39.685Z,32.30
2019-05-09T06:09:11.626Z,32.40
2019-05-09T06:11:43.300Z,32.50
2019-05-09T06:14:15.116Z,32.60
2019-05-09T06:16:48.320Z,32.60
2019-05-09T06:19:18.946Z,32.70
2019-05-09T06:22:09.147Z,32.60
2019-05-09T06:24:41.110Z,32.60
2019-05-09T06:27:12.943Z,32.50
2019-05-09T06:29:43.434Z,32.50
2019-05-09T06:32:15.217Z,32.60
2019-05-09T06:34:47.565Z,32.60
2019-05-09T06:37:38.295Z,32.60
2019-05-09T06:40:11.313Z,32.40
2019-05-09T06:42:43.106Z,32.40
2019-05-09T06:45:18.055Z,32.20
2019-05-09T06:47:51.019Z,32.10
2019-05-09T06:50:22.663Z,32.10
2019-05-09T06:52:54.451Z,32.00
2019-05-09T06:55:24.874Z,32.00
2019-05-09T06:57:58.289Z,32.00
2019-05-09T07:00:32.884Z,31.90
2019-05-09T07:03:08.071Z,31.80
2019-05-09T07:05:40.069Z,31.70
2019-05-09T07:08:12.891Z,31.70
2019-05-09T07:10:44.808Z,31.60
2019-05-09T07:13:15.172Z,31.50
2019-05-09T07:15:48.172Z,31.50
2019-05-09T07:18:19.676Z,31.50
2019-05-09T07:20:51.443Z,31.60
2019-05-09T07:23:23.226Z,31.70
2019-05-09T07:25:58.136Z,32.00
2019-05-09T07:28:29.530Z,32.10
2019-05-09T07:31:02.104Z,32.20
2019-05-09T07:33:34.774Z,32.40
2019-05-09T07:36:08.555Z,32.40
2019-05-09T07:38:39.617Z,32.40
2019-05-09T07:41:11.453Z,32.60
2019-05-09T07:43:41.863Z,32.60
2019-05-09T07:46:15.042Z,32.70
2019-05-09T07:48:48.416Z,32.90
2019-05-09T07:51:21.591Z,33.00
2019-05-09T07:53:52.834Z,33.20
2019-05-09T07:56:24.683Z,33.30
2019-05-09T07:58:55.259Z,33.40
2019-05-09T08:01:28.049Z,33.30
2019-05-09T08:03:59.819Z,33.40
2019-05-09T08:06:31.068Z,33.50
2019-05-09T08:09:02.909Z,33.50
2019-05-09T08:11:34.641Z,33.50
2019-05-09T08:14:10.453Z,33.60
2019-05-09T08:16:40.629Z,33.60
2019-05-09T08:19:10.869Z,33.50
2019-05-09T08:21:42.619Z,33.50
2019-05-09T08:24:14.368Z,33.30
2019-05-09T08:26:44.866Z,33.20
2019-05-09T08:29:17.856Z,33.20
2019-05-09T08:31:49.637Z,33.00
2019-05-09T08:34:21.003Z,32.90
2019-05-09T08:36:52.379Z,32.70
2019-05-09T08:39:24.071Z,32.60
2019-05-09T08:41:55.881Z,32.50
2019-05-09T08:44:30.569Z,32.40
2019-05-09T08:46:59.795Z,32.30
2019-05-09T08:49:32.707Z,32.20
2019-05-09T08:52:14.981Z,32.20
2019-05-09T08:54:40.219Z,32.10
2019-05-09T08:57:11.847Z,32.00
2019-05-09T08:59:43.102Z,32.00
2019-05-09T09:02:18.767Z,31.90
2019-05-09T09:04:48.962Z,31.80
2019-05-09T09:07:20.839Z,31.70
2019-05-09T09:09:52.417Z,31.60
2019-05-09T09:12:33.055Z,31.60
2019-05-09T09:14:58.564Z,31.50
2019-05-09T09:17:30.227Z,31.30
2019-05-09T09:20:02.038Z,30.90
2019-05-09T09:22:32.743Z,30.50
2019-05-09T09:25:04.681Z,30.10
2019-05-09T09:27:38.042Z,29.70
2019-05-09T09:30:20.250Z,29.40
2019-05-09T09:32:43.335Z,29.00
2019-05-09T09:35:15.468Z,28.40
2019-05-09T09:37:51.813Z,27.80
2019-05-09T09:40:27.791Z,27.20
2019-05-09T09:46:14.780Z,26.10
2019-05-09T10:07:12.683Z,24.80
2019-05-09T10:09:44.426Z,24.70
2019-05-09T10:12:18.022Z,24.70
2019-05-09T10:14:49.864Z,24.60
2019-05-09T10:17:22.907Z,24.50
2019-05-09T10:19:55.511Z,24.40
2019-05-09T10:22:28.170Z,24.40
2019-05-09T10:25:00.220Z,24.20
2019-05-09T10:27:32.010Z,24.20
2019-05-09T10:30:03.680Z,24.20
2019-05-09T10:32:38.155Z,24.10
